Time;durP1;ratioP1;P1;durP2;ratioP2;P2;SDS_P1;SDS_P2;PMS_P1;PMS_P2;Temp;Humidity;BMP_temperature;BMP_pressure;BME280_temperature;BME280_humidity;BME280_pressure;Samples;Min_cycle;Max_cycle;Signal;HPM_P1;HPM_P2
2022/02/11 00:00:53;;;;;;;;;;;;;;;;;;5044519;28;19952;-77
2022/02/11 00:08:21;;;;;;;;;;;;;;;;;;5043420;28;20029;-77
2022/02/11 00:10:47;;;;;;;;;;;;;;;;;;5045520;28;19952;-77
2022/02/11 00:13:13;;;;;;;;;;;;;;;;;;5026628;28;19956;-77
2022/02/11 00:18:06;;;;;;;;;;;;;;;;;;5043542;28;20453;-78
2022/02/11 00:20:32;;;;;;;;;;;;;;;;;;5040656;28;20025;-77
2022/02/11 00:22:58;;;;;;;;;;;;;;;;;;5041419;28;19952;-77
2022/02/11 00:25:25;;;;;;;;;;;;;;;;;;5041374;28;19952;-78
2022/02/11 00:33:27;;;;;;;;;;;;;;;;;;5040213;28;21309;-77
2022/02/11 00:35:59;;;;;;;;;;;;;;;;;;5044278;28;20392;-77
2022/02/11 00:38:37;;;;;;;;;;;;;;;;;;5045183;28;19975;-77
2022/02/11 00:46:33;;;;;;;;;;;;;;;;;;5039387;28;19949;-77
2022/02/11 01:02:58;;;;;;;;;;;;;;;;;;5043345;28;19960;-78
2022/02/11 01:05:24;;;;;;;;;;;;;;;;;;5045228;28;19948;-78
2022/02/11 01:07:51;;;;;;;;;;;;;;;;;;5042173;28;20343;-78
2022/02/11 01:10:17;;;;;;;;;;;;;;;;;;5044773;28;20061;-78
2022/02/11 01:12:44;;;;;;;;;;;;;;;;;;5039127;28;20009;-77
2022/02/11 01:15:10;;;;;;;;;;;;;;;;;;5042919;28;19969;-77
2022/02/11 01:17:50;;;;;;;;;;;;;;;;;;5044126;28;19944;-77
2022/02/11 01:28:17;;;;;;;;;;;;;;;;;;5038983;28;20006;-77
2022/02/11 01:54:34;;;;;;;;;;;;;;;;;;5046105;28;21486;-77
2022/02/11 02:25:08;;;;;;;;;;;;;;;;;;5040429;28;20513;-77
2022/02/11 02:27:26;;;;;;;;;;;;;;;;;;5030688;28;21304;-77
2022/02/11 02:57:05;;;;;;;;;;;;;;;;;;5042864;28;19968;-77
2022/02/11 02:59:58;;;;;;;;;;;;;;;;;;5045436;28;20025;-77
2022/02/11 03:54:07;;;;;;;;;;;;;;;;;;5046333;28;19999;-77
2022/02/11 04:56:55;;;;;;;;;;;;;;;;;;5016277;28;20347;-77
2022/02/11 04:59:46;;;;;;;;;;;;;;;;;;5037265;28;19921;-78
2022/02/11 05:02:12;;;;;;;;;;;;;;;;;;5016229;28;19948;-77
2022/02/11 05:04:38;;;;;;;;;;;;;;;;;;5016171;28;19960;-78
2022/02/11 05:07:04;;;;;;;;;;;;;;;;;;5017138;28;20394;-77
2022/02/11 05:09:30;;;;;;;;;;;;;;;;;;5020496;28;20047;-78
2022/02/11 05:11:57;;;;;;;;;;;;;;;;;;5014246;28;19956;-78
2022/02/11 05:14:23;;;;;;;;;;;;;;;;;;5020007;28;20463;-77
2022/02/11 05:16:49;;;;;;;;;;;;;;;;;;5019782;28;20022;-77
2022/02/11 05:19:15;;;;;;;;;;;;;;;;;;5023016;28;20014;-77
2022/02/11 05:21:41;;;;;;;;;;;;;;;;;;5018775;28;20518;-78
2022/02/11 05:24:07;;;;;;;;;;;;;;;;;;5019140;28;19960;-78
2022/02/11 05:26:34;;;;;;;;;;;;;;;;;;5020048;28;19967;-78
2022/02/11 05:29:00;;;;;;;;;;;;;;;;;;5025467;28;19956;-77
2022/02/11 05:31:26;;;;;;;;;;;;;;;;;;5020167;28;20030;-77
2022/02/11 05:33:52;;;;;;;;;;;;;;;;;;5044751;28;19960;-77
2022/02/11 05:36:19;;;;;;;;;;;;;;;;;;5043655;28;19972;-76
2022/02/11 05:38:45;;;;;;;;;;;;;;;;;;5043518;28;20446;-76
2022/02/11 05:41:11;;;;;;;;;;;;;;;;;;5042830;28;19968;-76
2022/02/11 05:43:40;;;;;;;;;;;;;;;;;;5041082;28;20477;-76
2022/02/11 05:46:06;;;;;;;;;;;;;;;;;;5040075;28;20887;-76
2022/02/11 05:48:35;;;;;;;;;;;;;;;;;;5048492;28;19944;-76
2022/02/11 05:51:01;;;;;;;;;;;;;;;;;;5023284;28;19948;-76
2022/02/11 05:53:28;;;;;;;;;;;;;;;;;;5047303;28;19963;-76
2022/02/11 05:55:54;;;;;;;;;;;;;;;;;;5026073;28;20651;-76
2022/02/11 05:58:20;;;;;;;;;;;;;;;;;;5047255;28;19920;-76
2022/02/11 06:00:46;;;;;;;;;;;;;;;;;;5043937;28;20388;-76
2022/02/11 06:03:12;;;;;;;;;;;;;;;;;;5042407;28;19976;-76
2022/02/11 06:05:38;;;;;;;;;;;;;;;;;;5043345;28;20434;-76
2022/02/11 06:08:05;;;;;;;;;;;;;;;;;;5022681;28;19953;-76
2022/02/11 06:10:31;;;;;;;;;;;;;;;;;;5038565;28;19940;-76
2022/02/11 06:12:57;;;;;;;;;;;;;;;;;;5044511;28;19991;-76
2022/02/11 06:15:23;;;;;;;;;;;;;;;;;;5026615;28;19974;-76
2022/02/11 06:17:49;;;;;;;;;;;;;;;;;;5027683;28;20019;-76
2022/02/11 06:20:16;;;;;;;;;;;;;;;;;;5044468;28;19952;-76
2022/02/11 06:22:45;;;;;;;;;;;;;;;;;;5041960;28;19922;-75
2022/02/11 06:25:12;;;;;;;;;;;;;;;;;;5046277;28;20022;-76
2022/02/11 06:27:38;;;;;;;;;;;;;;;;;;5043982;28;20401;-76
2022/02/11 06:30:04;;;;;;;;;;;;;;;;;;5042493;28;19964;-76
2022/02/11 06:32:30;;;;;;;;;;;;;;;;;;5043622;28;19956;-76
2022/02/11 06:34:57;;;;;;;;;;;;;;;;;;5045259;28;20384;-77
2022/02/11 06:37:23;;;;;;;;;;;;;;;;;;5039728;28;19945;-77
2022/02/11 06:39:49;;;;;;;;;;;;;;;;;;5028204;28;19948;-77
2022/02/11 06:42:15;;;;;;;;;;;;;;;;;;5042536;28;19943;-77
2022/02/11 06:44:42;;;;;;;;;;;;;;;;;;5044241;28;19920;-76
2022/02/11 06:47:08;;;;;;;;;;;;;;;;;;5041470;28;20376;-77
2022/02/11 06:49:34;;;;;;;;;;;;;;;;;;5044169;28;19963;-77
2022/02/11 06:52:00;;;;;;;;;;;;;;;;;;5046387;28;20018;-77
2022/02/11 06:54:26;;;;;;;;;;;;;;;;;;5044126;28;19968;-77
2022/02/11 06:56:53;;;;;;;;;;;;;;;;;;5034090;28;20392;-77
2022/02/11 06:59:19;;;;;;;;;;;;;;;;;;5039369;28;19968;-77
2022/02/11 07:01:45;;;;;;;;;;;;;;;;;;5040826;28;19963;-78
2022/02/11 07:04:11;;;;;;;;;;;;;;;;;;5045366;28;19967;-77
2022/02/11 07:06:37;;;;;;;;;;;;;;;;;;5039591;28;19956;-77
2022/02/11 07:09:03;;;;;;;;;;;;;;;;;;5038611;28;19967;-77
2022/02/11 07:11:30;;;;;;;;;;;;;;;;;;5030394;28;20406;-78
2022/02/11 07:13:56;;;;;;;;;;;;;;;;;;5019483;28;19960;-78
2022/02/11 07:16:22;;;;;;;;;;;;;;;;;;5039624;28;20816;-78
2022/02/11 07:18:48;;;;;;;;;;;;;;;;;;5033055;28;20006;-78
2022/02/11 07:21:14;;;;;;;;;;;;;;;;;;5043434;28;20355;-78
2022/02/11 07:23:41;;;;;;;;;;;;;;;;;;5022004;28;19956;-78
2022/02/11 07:26:07;;;;;;;;;;;;;;;;;;5018360;28;19964;-77
2022/02/11 07:28:33;;;;;;;;;;;;;;;;;;5042880;28;19973;-77
2022/02/11 07:31:01;;;;;;;;;;;;;;;;;;5044976;28;19956;-78
2022/02/11 07:33:27;;;;;;;;;;;;;;;;;;5042865;28;19968;-78
2022/02/11 07:35:53;;;;;;;;;;;;;;;;;;5046627;28;19974;-78
2022/02/11 07:38:19;;;;;;;;;;;;;;;;;;5041798;28;19940;-78
2022/02/11 07:40:45;;;;;;;;;;;;;;;;;;5040003;28;20688;-78
2022/02/11 07:43:12;;;;;;;;;;;;;;;;;;5043213;28;19943;-78
2022/02/11 07:45:38;;;;;;;;;;;;;;;;;;5041268;28;19968;-78
2022/02/11 07:48:04;;;;;;;;;;;;;;;;;;5044337;28;19960;-78
2022/02/11 07:50:30;;;;;;;;;;;;;;;;;;5029594;28;19967;-77
2022/02/11 07:52:57;;;;;;;;;;;;;;;;;;5025873;28;19968;-77
2022/02/11 07:55:23;;;;;;;;;;;;;;;;;;5019069;28;20030;-78
2022/02/11 07:57:49;;;;;;;;;;;;;;;;;;5040668;28;19964;-78
2022/02/11 08:00:15;;;;;;;;;;;;;;;;;;5022705;28;19949;-78
2022/02/11 08:02:41;;;;;;;;;;;;;;;;;;5023235;28;20043;-76
2022/02/11 08:05:08;;;;;;;;;;;;;;;;;;5038952;28;19970;-77
2022/02/11 08:07:34;;;;;;;;;;;;;;;;;;5039943;28;20486;-77
2022/02/11 08:10:00;;;;;;;;;;;;;;;;;;5023622;28;19925;-77
2022/02/11 08:12:26;;;;;;;;;;;;;;;;;;5026465;28;19976;-77
2022/02/11 08:14:52;;;;;;;;;;;;;;;;;;5020526;28;19956;-77
2022/02/11 08:17:19;;;;;;;;;;;;;;;;;;5037349;28;19971;-77
2022/02/11 08:19:45;;;;;;;;;;;;;;;;;;5041963;28;19956;-77
2022/02/11 08:22:11;;;;;;;;;;;;;;;;;;5025222;28;19956;-77
2022/02/11 08:24:37;;;;;;;;;;;;;;;;;;5049121;28;19951;-77
2022/02/11 08:27:03;;;;;;;;;;;;;;;;;;5045456;28;19990;-78
2022/02/11 08:29:31;;;;;;;;;;;;;;;;;;5045904;28;20561;-77
2022/02/11 08:31:57;;;;;;;;;;;;;;;;;;5024340;28;19960;-77
2022/02/11 08:34:23;;;;;;;;;;;;;;;;;;5038410;28;19962;-77
2022/02/11 08:36:50;;;;;;;;;;;;;;;;;;5026678;28;20461;-77
2022/02/11 08:39:16;;;;;;;;;;;;;;;;;;5039485;28;19948;-77
2022/02/11 08:41:42;;;;;;;;;;;;;;;;;;5041793;28;19959;-77
2022/02/11 08:44:08;;;;;;;;;;;;;;;;;;5024940;28;20418;-77
2022/02/11 08:46:34;;;;;;;;;;;;;;;;;;5038990;28;19944;-77
2022/02/11 08:49:01;;;;;;;;;;;;;;;;;;5037132;28;20618;-77
2022/02/11 08:51:30;;;;;;;;;;;;;;;;;;5041451;28;19964;-77
2022/02/11 08:53:56;;;;;;;;;;;;;;;;;;5041634;28;20335;-77
2022/02/11 08:56:22;;;;;;;;;;;;;;;;;;5039263;28;19929;-77
2022/02/11 08:58:49;;;;;;;;;;;;;;;;;;5043921;28;20415;-77
2022/02/11 09:01:15;;;;;;;;;;;;;;;;;;5040310;28;20006;-78
2022/02/11 09:03:41;;;;;;;;;;;;;;;;;;5022307;28;20038;-77
2022/02/11 09:06:07;;;;;;;;;;;;;;;;;;5041839;28;19964;-77
2022/02/11 09:08:33;;;;;;;;;;;;;;;;;;5044334;28;19956;-77
2022/02/11 09:10:59;;;;;;;;;;;;;;;;;;5028113;28;20391;-77
2022/02/11 09:13:27;;;;;;;;;;;;;;;;;;5024968;28;19940;-77
2022/02/11 09:15:53;;;;;;;;;;;;;;;;;;5045262;28;19964;-77
2022/02/11 09:18:20;;;;;;;;;;;;;;;;;;5033916;28;19948;-77
2022/02/11 09:20:46;;;;;;;;;;;;;;;;;;5040346;28;19955;-77
2022/02/11 09:23:12;;;;;;;;;;;;;;;;;;5044083;28;20333;-78
2022/02/11 09:25:38;;;;;;;;;;;;;;;;;;5040148;28;19960;-77
2022/02/11 09:28:05;;;;;;;;;;;;;;;;;;5038099;28;19998;-77
2022/02/11 09:30:34;;;;;;;;;;;;;;;;;;5046886;28;20351;-78
2022/02/11 09:33:00;;;;;;;;;;;;;;;;;;5020243;28;23191;-77
2022/02/11 09:35:28;;;;;;;;;;;;;;;;;;5040704;28;19967;-77
2022/02/11 09:37:54;;;;;;;;;;;;;;;;;;5044322;28;20357;-78
2022/02/11 09:40:20;;;;;;;;;;;;;;;;;;5041580;28;19960;-77
2022/02/11 09:42:46;;;;;;;;;;;;;;;;;;5022539;28;20406;-77
2022/02/11 09:45:14;;;;;;;;;;;;;;;;;;5040121;28;19948;-77
2022/02/11 09:47:40;;;;;;;;;;;;;;;;;;5039152;28;20010;-77
2022/02/11 09:50:06;;;;;;;;;;;;;;;;;;5042872;28;20310;-77
2022/02/11 09:52:32;;;;;;;;;;;;;;;;;;5039983;28;20010;-77
2022/02/11 09:57:43;;;;;;;;;;;;;;;;;;5036618;28;19960;-77
2022/02/11 10:00:10;;;;;;;;;;;;;;;;;;5037123;28;20400;-77
2022/02/11 10:02:36;;;;;;;;;;;;;;;;;;5045089;28;19948;-77
2022/02/11 10:05:05;;;;;;;;;;;;;;;;;;5039470;28;19948;-77
2022/02/11 10:07:31;;;;;;;;;;;;;;;;;;5042070;28;19956;-77
2022/02/11 10:09:57;;;;;;;;;;;;;;;;;;5048222;28;20341;-77
2022/02/11 10:12:23;;;;;;;;;;;;;;;;;;5034965;28;19948;-78
2022/02/11 10:14:50;;;;;;;;;;;;;;;;;;5040708;28;19924;-77
2022/02/11 10:17:16;;;;;;;;;;;;;;;;;;5041116;28;19980;-77
2022/02/11 10:19:42;;;;;;;;;;;;;;;;;;5024542;28;20467;-77
2022/02/11 10:22:09;;;;;;;;;;;;;;;;;;5036380;28;19921;-78
2022/02/11 10:24:35;;;;;;;;;;;;;;;;;;5045810;28;19989;-78
2022/02/11 10:27:01;;;;;;;;;;;;;;;;;;5020235;28;20073;-78
2022/02/11 10:29:27;;;;;;;;;;;;;;;;;;5041249;28;19961;-77
2022/02/11 10:31:53;;;;;;;;;;;;;;;;;;5025591;28;19929;-78
2022/02/11 10:34:20;;;;;;;;;;;;;;;;;;5041975;28;19959;-78
2022/02/11 10:36:49;;;;;;;;;;;;;;;;;;5047940;28;19956;-78
2022/02/11 10:39:15;;;;;;;;;;;;;;;;;;5042810;28;19948;-77
2022/02/11 10:41:41;;;;;;;;;;;;;;;;;;5043220;28;19959;-77
2022/02/11 10:44:08;;;;;;;;;;;;;;;;;;5044006;28;19960;-77
2022/02/11 10:46:34;;;;;;;;;;;;;;;;;;5048277;28;19948;-77
2022/02/11 10:49:01;;;;;;;;;;;;;;;;;;5039665;28;19968;-77
2022/02/11 10:51:27;;;;;;;;;;;;;;;;;;5041155;28;19971;-77
2022/02/11 10:53:53;;;;;;;;;;;;;;;;;;5042807;28;19965;-77
2022/02/11 10:56:19;;;;;;;;;;;;;;;;;;5027900;28;20371;-77
2022/02/11 10:58:47;;;;;;;;;;;;;;;;;;5022233;28;19968;-79
2022/02/11 11:01:13;;;;;;;;;;;;;;;;;;5043163;28;19959;-77
2022/02/11 11:03:40;;;;;;;;;;;;;;;;;;5017266;28;19931;-77
2022/02/11 11:06:08;;;;;;;;;;;;;;;;;;5041227;28;20402;-77
2022/02/11 11:08:34;;;;;;;;;;;;;;;;;;5043922;28;19971;-77
2022/02/11 11:11:03;;;;;;;;;;;;;;;;;;5042516;28;19952;-78
2022/02/11 11:13:29;;;;;;;;;;;;;;;;;;5044560;28;20728;-78
2022/02/11 11:15:55;;;;;;;;;;;;;;;;;;5033201;28;20027;-78
2022/02/11 11:18:22;;;;;;;;;;;;;;;;;;5046243;28;20747;-78
2022/02/11 11:20:48;;;;;;;;;;;;;;;;;;5041913;28;20493;-78
2022/02/11 11:23:14;;;;;;;;;;;;;;;;;;5047248;28;20671;-78
2022/02/11 11:25:40;;;;;;;;;;;;;;;;;;5025804;28;19948;-78
2022/02/11 11:28:06;;;;;;;;;;;;;;;;;;5045216;28;20263;-78
2022/02/11 11:30:33;;;;;;;;;;;;;;;;;;5047037;28;19963;-78
2022/02/11 11:32:59;;;;;;;;;;;;;;;;;;5045995;28;19970;-77
2022/02/11 11:35:25;;;;;;;;;;;;;;;;;;5044372;28;19927;-77
2022/02/11 11:37:52;;;;;;;;;;;;;;;;;;5041666;28;20406;-77
2022/02/11 11:40:18;;;;;;;;;;;;;;;;;;5040785;28;20003;-78
2022/02/11 11:42:44;;;;;;;;;;;;;;;;;;5044778;28;19945;-78
2022/02/11 11:45:10;;;;;;;;;;;;;;;;;;5044417;28;19952;-78
2022/02/11 11:47:37;;;;;;;;;;;;;;;;;;5027496;28;19964;-78
2022/02/11 11:50:06;;;;;;;;;;;;;;;;;;5023114;28;19960;-78
2022/02/11 11:52:32;;;;;;;;;;;;;;;;;;5027985;28;19971;-78
2022/02/11 11:54:58;;;;;;;;;;;;;;;;;;5027827;28;19960;-78
2022/02/11 11:57:24;;;;;;;;;;;;;;;;;;5024405;28;19964;-78
2022/02/11 11:59:50;;;;;;;;;;;;;;;;;;5031830;28;20050;-79
2022/02/11 12:02:17;;;;;;;;;;;;;;;;;;5039864;28;19975;-78
2022/02/11 12:04:43;;;;;;;;;;;;;;;;;;5025554;28;19955;-78
2022/02/11 12:07:10;;;;;;;;;;;;;;;;;;5045716;28;19994;-78
2022/02/11 12:09:36;;;;;;;;;;;;;;;;;;5046747;28;19951;-77
2022/02/11 12:12:02;;;;;;;;;;;;;;;;;;5040809;28;19960;-78
2022/02/11 12:14:28;;;;;;;;;;;;;;;;;;5039708;28;19925;-77
2022/02/11 12:16:54;;;;;;;;;;;;;;;;;;5027968;28;19969;-77
2022/02/11 12:19:21;;;;;;;;;;;;;;;;;;5041980;28;19972;-77
2022/02/11 12:21:47;;;;;;;;;;;;;;;;;;5037658;28;19953;-78
2022/02/11 12:29:43;;;;;;;;;;;;;;;;;;5042319;28;19964;-77
2022/02/11 12:32:09;;;;;;;;;;;;;;;;;;5023282;28;19964;-78
2022/02/11 12:34:36;;;;;;;;;;;;;;;;;;5045338;28;20366;-78
2022/02/11 12:37:02;;;;;;;;;;;;;;;;;;5041630;28;19964;-78
2022/02/11 12:39:30;;;;;;;;;;;;;;;;;;5018526;28;19960;-77
2022/02/11 12:41:57;;;;;;;;;;;;;;;;;;5039535;28;20373;-78
2022/02/11 12:44:23;;;;;;;;;;;;;;;;;;5041536;28;20280;-78
2022/02/11 12:46:49;;;;;;;;;;;;;;;;;;5041978;28;19990;-78
2022/02/11 12:49:15;;;;;;;;;;;;;;;;;;5043790;28;20309;-78
2022/02/11 12:51:41;;;;;;;;;;;;;;;;;;5042341;28;19968;-77
2022/02/11 12:54:07;;;;;;;;;;;;;;;;;;5040635;28;19952;-78
2022/02/11 12:56:34;;;;;;;;;;;;;;;;;;5039297;28;20005;-78
2022/02/11 12:59:00;;;;;;;;;;;;;;;;;;5039017;28;19960;-78
2022/02/11 13:01:26;;;;;;;;;;;;;;;;;;5038910;28;19974;-78
2022/02/11 13:03:53;;;;;;;;;;;;;;;;;;5043478;28;19952;-78
2022/02/11 13:06:19;;;;;;;;;;;;;;;;;;5046143;28;19948;-77
2022/02/11 13:08:45;;;;;;;;;;;;;;;;;;5025382;28;19944;-77
2022/02/11 13:11:14;;;;;;;;;;;;;;;;;;5041816;28;19963;-78
2022/02/11 13:13:40;;;;;;;;;;;;;;;;;;5026615;28;19965;-78
2022/02/11 13:16:06;;;;;;;;;;;;;;;;;;5026675;28;19933;-78
2022/02/11 13:18:35;;;;;;;;;;;;;;;;;;5041494;28;19948;-78
2022/02/11 13:21:02;;;;;;;;;;;;;;;;;;5041439;28;20569;-78
2022/02/11 13:23:28;;;;;;;;;;;;;;;;;;5041594;28;19952;-78
2022/02/11 13:25:55;;;;;;;;;;;;;;;;;;5042394;28;19990;-78
2022/02/11 13:28:21;;;;;;;;;;;;;;;;;;5024114;28;19960;-78
2022/02/11 13:30:48;;;;;;;;;;;;;;;;;;5037862;28;20047;-78
2022/02/11 13:33:14;;;;;;;;;;;;;;;;;;5044201;28;19968;-77
2022/02/11 13:35:40;;;;;;;;;;;;;;;;;;5037832;28;20353;-77
2022/02/11 13:38:06;;;;;;;;;;;;;;;;;;5037368;28;19979;-77
2022/02/11 13:40:32;;;;;;;;;;;;;;;;;;5027896;28;19997;-79
2022/02/11 13:42:59;;;;;;;;;;;;;;;;;;5041350;28;20381;-77
2022/02/11 13:45:25;;;;;;;;;;;;;;;;;;5024545;28;19965;-77
2022/02/11 13:47:51;;;;;;;;;;;;;;;;;;5037538;28;20392;-77
2022/02/11 13:50:17;;;;;;;;;;;;;;;;;;5039037;28;19963;-78
2022/02/11 13:53:02;;;;;;;;;;;;;;;;;;5039067;28;19917;-77
2022/02/11 13:55:28;;;;;;;;;;;;;;;;;;5040007;28;20376;-78
2022/02/11 13:57:54;;;;;;;;;;;;;;;;;;5033307;28;19988;-78
2022/02/11 14:00:20;;;;;;;;;;;;;;;;;;5037949;28;19921;-78
2022/02/11 14:02:47;;;;;;;;;;;;;;;;;;5039715;28;19964;-78
2022/02/11 14:05:13;;;;;;;;;;;;;;;;;;5038261;28;19964;-77
2022/02/11 14:07:39;;;;;;;;;;;;;;;;;;5045129;28;20017;-77
2022/02/11 14:10:05;;;;;;;;;;;;;;;;;;5044642;28;20657;-77
2022/02/11 14:12:33;;;;;;;;;;;;;;;;;;5046851;28;19957;-77
2022/02/11 14:14:59;;;;;;;;;;;;;;;;;;5025153;28;19952;-78
2022/02/11 14:17:25;;;;;;;;;;;;;;;;;;5043802;28;19968;-77
2022/02/11 14:19:51;;;;;;;;;;;;;;;;;;5037590;28;19952;-75
2022/02/11 14:22:17;;;;;;;;;;;;;;;;;;5041953;28;19964;-77
2022/02/11 14:24:44;;;;;;;;;;;;;;;;;;5036699;28;19964;-75
2022/02/11 14:27:10;;;;;;;;;;;;;;;;;;5039045;28;19960;-75
2022/02/11 14:29:36;;;;;;;;;;;;;;;;;;5039023;28;19970;-76
2022/02/11 14:32:03;;;;;;;;;;;;;;;;;;5029495;28;20030;-75
2022/02/11 14:34:29;;;;;;;;;;;;;;;;;;5042653;28;20016;-75
2022/02/11 14:36:55;;;;;;;;;;;;;;;;;;5044071;28;20466;-74
2022/02/11 14:39:21;;;;;;;;;;;;;;;;;;5045370;28;19967;-75
2022/02/11 14:41:48;;;;;;;;;;;;;;;;;;5041160;28;19917;-75
2022/02/11 14:44:14;;;;;;;;;;;;;;;;;;5027592;28;19956;-75
2022/02/11 14:46:40;;;;;;;;;;;;;;;;;;5041621;28;19982;-75
2022/02/11 14:49:06;;;;;;;;;;;;;;;;;;5044152;28;20674;-75
2022/02/11 14:51:34;;;;;;;;;;;;;;;;;;5044881;28;19956;-75
2022/02/11 14:54:02;;;;;;;;;;;;;;;;;;5041405;28;19953;-76
2022/02/11 14:56:28;;;;;;;;;;;;;;;;;;5040509;28;20450;-75
2022/02/11 14:58:54;;;;;;;;;;;;;;;;;;5039787;28;19972;-76
2022/02/11 15:01:21;;;;;;;;;;;;;;;;;;5048306;28;19945;-75
2022/02/11 15:03:47;;;;;;;;;;;;;;;;;;5043266;28;19952;-75
2022/02/11 15:06:13;;;;;;;;;;;;;;;;;;5029521;28;19949;-77
2022/02/11 15:08:39;;;;;;;;;;;;;;;;;;5026329;28;19952;-75
2022/02/11 15:11:05;;;;;;;;;;;;;;;;;;5044875;28;19959;-75
2022/02/11 15:13:32;;;;;;;;;;;;;;;;;;5042092;28;20710;-76
2022/02/11 15:15:58;;;;;;;;;;;;;;;;;;5039107;28;19971;-75
2022/02/11 15:18:24;;;;;;;;;;;;;;;;;;5046654;28;19955;-75
2022/02/11 15:20:50;;;;;;;;;;;;;;;;;;5045407;28;19924;-76
2022/02/11 15:23:17;;;;;;;;;;;;;;;;;;5011961;28;19956;-75
2022/02/11 15:25:43;;;;;;;;;;;;;;;;;;5038381;28;20508;-76
2022/02/11 15:28:09;;;;;;;;;;;;;;;;;;5043982;28;19952;-75
2022/02/11 15:30:35;;;;;;;;;;;;;;;;;;5023759;28;19963;-75
2022/02/11 15:33:02;;;;;;;;;;;;;;;;;;5045235;28;19956;-76
2022/02/11 15:35:29;;;;;;;;;;;;;;;;;;5032687;28;19952;-75
2022/02/11 15:37:56;;;;;;;;;;;;;;;;;;5036457;28;19959;-75
2022/02/11 15:40:27;;;;;;;;;;;;;;;;;;5039311;28;20133;-75
2022/02/11 15:42:53;;;;;;;;;;;;;;;;;;5037543;28;19964;-75
2022/02/11 15:45:19;;;;;;;;;;;;;;;;;;5021374;28;19982;-76
2022/02/11 15:47:46;;;;;;;;;;;;;;;;;;5041427;28;19959;-75
2022/02/11 15:50:12;;;;;;;;;;;;;;;;;;5042959;28;19956;-75
2022/02/11 15:52:38;;;;;;;;;;;;;;;;;;5039126;28;19961;-76
2022/02/11 15:55:04;;;;;;;;;;;;;;;;;;5035160;28;19925;-76
2022/02/11 15:57:30;;;;;;;;;;;;;;;;;;5039703;28;20452;-76
2022/02/11 15:59:57;;;;;;;;;;;;;;;;;;5037527;28;19948;-76
2022/02/11 16:02:23;;;;;;;;;;;;;;;;;;5014861;28;19961;-75
2022/02/11 16:04:49;;;;;;;;;;;;;;;;;;5035867;28;19952;-76
2022/02/11 16:07:15;;;;;;;;;;;;;;;;;;5040741;28;20085;-75
2022/02/11 16:09:41;;;;;;;;;;;;;;;;;;5038549;28;19966;-76
2022/02/11 16:12:08;;;;;;;;;;;;;;;;;;5038156;28;19966;-76
2022/02/11 16:14:34;;;;;;;;;;;;;;;;;;5041580;28;20584;-80
2022/02/11 16:17:00;;;;;;;;;;;;;;;;;;5036513;28;19936;-77
2022/02/11 16:19:26;;;;;;;;;;;;;;;;;;5036504;28;20001;-78
2022/02/11 16:21:53;;;;;;;;;;;;;;;;;;5034457;28;19953;-76
2022/02/11 16:24:19;;;;;;;;;;;;;;;;;;5039075;28;19960;-76
2022/02/11 16:26:45;;;;;;;;;;;;;;;;;;5043454;28;20361;-76
2022/02/11 16:29:11;;;;;;;;;;;;;;;;;;5040230;28;19957;-76
2022/02/11 16:31:37;;;;;;;;;;;;;;;;;;5017101;28;19956;-76
2022/02/11 16:34:04;;;;;;;;;;;;;;;;;;5012668;28;20503;-76
2022/02/11 16:36:32;;;;;;;;;;;;;;;;;;5014609;28;19964;-77
2022/02/11 16:38:58;;;;;;;;;;;;;;;;;;5018851;28;19968;-74
2022/02/11 16:41:24;;;;;;;;;;;;;;;;;;5020231;28;19992;-74
2022/02/11 16:43:50;;;;;;;;;;;;;;;;;;5020109;28;19956;-75
2022/02/11 16:46:17;;;;;;;;;;;;;;;;;;5020080;28;19960;-75
2022/02/11 16:48:43;;;;;;;;;;;;;;;;;;5018951;28;19964;-75
2022/02/11 16:51:09;;;;;;;;;;;;;;;;;;5021357;28;19961;-74
2022/02/11 16:53:35;;;;;;;;;;;;;;;;;;5024016;28;19960;-74
2022/02/11 16:56:01;;;;;;;;;;;;;;;;;;5017044;28;19968;-75
2022/02/11 16:58:28;;;;;;;;;;;;;;;;;;5019110;28;20617;-74
2022/02/11 17:00:54;;;;;;;;;;;;;;;;;;5024759;28;19972;-74
2022/02/11 17:03:20;;;;;;;;;;;;;;;;;;5022303;28;19952;-74
2022/02/11 17:05:46;;;;;;;;;;;;;;;;;;5020995;28;19973;-75
2022/02/11 17:08:14;;;;;;;;;;;;;;;;;;5020777;28;19964;-75
2022/02/11 17:10:40;;;;;;;;;;;;;;;;;;5018573;28;19952;-74
2022/02/11 17:13:07;;;;;;;;;;;;;;;;;;5022800;28;20019;-74
2022/02/11 17:15:33;;;;;;;;;;;;;;;;;;5023446;28;19968;-75
2022/02/11 17:17:59;;;;;;;;;;;;;;;;;;5028358;28;20765;-75
2022/02/11 17:20:25;;;;;;;;;;;;;;;;;;5023608;28;19960;-74
2022/02/11 17:22:52;;;;;;;;;;;;;;;;;;5024295;28;20384;-74
2022/02/11 17:25:18;;;;;;;;;;;;;;;;;;5023854;28;19960;-74
2022/02/11 17:27:44;;;;;;;;;;;;;;;;;;5023256;28;19952;-75
2022/02/11 17:30:10;;;;;;;;;;;;;;;;;;4989117;28;19973;-74
2022/02/11 17:32:37;;;;;;;;;;;;;;;;;;5034605;28;19925;-74
2022/02/11 17:35:03;;;;;;;;;;;;;;;;;;5043532;28;19957;-74
2022/02/11 17:37:30;;;;;;;;;;;;;;;;;;5010472;28;19952;-75
2022/02/11 17:39:56;;;;;;;;;;;;;;;;;;5035796;28;20643;-75
2022/02/11 17:42:22;;;;;;;;;;;;;;;;;;5044187;28;19944;-82
2022/02/11 17:44:48;;;;;;;;;;;;;;;;;;5028343;28;19963;-74
2022/02/11 17:47:14;;;;;;;;;;;;;;;;;;5041508;28;19979;-75
2022/02/11 17:49:41;;;;;;;;;;;;;;;;;;5039402;28;19914;-75
2022/02/11 17:52:10;;;;;;;;;;;;;;;;;;5043856;28;20389;-75
2022/02/11 17:54:36;;;;;;;;;;;;;;;;;;5026333;28;20026;-75
2022/02/11 17:57:02;;;;;;;;;;;;;;;;;;5025826;28;25522;-75
2022/02/11 17:59:29;;;;;;;;;;;;;;;;;;5049730;28;19960;-76
2022/02/11 18:01:55;;;;;;;;;;;;;;;;;;5047366;28;19960;-75
2022/02/11 18:04:24;;;;;;;;;;;;;;;;;;5024239;28;19932;-75
2022/02/11 18:06:50;;;;;;;;;;;;;;;;;;5043924;28;20048;-75
2022/02/11 18:09:16;;;;;;;;;;;;;;;;;;5025448;28;19995;-75
2022/02/11 18:11:42;;;;;;;;;;;;;;;;;;5041007;28;19971;-75
2022/02/11 18:14:08;;;;;;;;;;;;;;;;;;5043316;28;21271;-76
2022/02/11 18:16:35;;;;;;;;;;;;;;;;;;5047245;28;20398;-75
2022/02/11 18:19:01;;;;;;;;;;;;;;;;;;5025863;28;19960;-75
2022/02/11 18:21:27;;;;;;;;;;;;;;;;;;5044934;28;20010;-75
2022/02/11 18:23:53;;;;;;;;;;;;;;;;;;5039327;28;19956;-75
2022/02/11 18:26:20;;;;;;;;;;;;;;;;;;5050243;28;19975;-75
2022/02/11 18:28:47;;;;;;;;;;;;;;;;;;5035169;28;20384;-76
2022/02/11 18:31:13;;;;;;;;;;;;;;;;;;5043304;28;20002;-75
2022/02/11 18:33:39;;;;;;;;;;;;;;;;;;5044674;28;19932;-75
2022/02/11 18:36:05;;;;;;;;;;;;;;;;;;5045168;28;19960;-75
2022/02/11 18:38:32;;;;;;;;;;;;;;;;;;5009891;28;19972;-75
2022/02/11 18:40:58;;;;;;;;;;;;;;;;;;5033842;28;19987;-76
2022/02/11 18:43:24;;;;;;;;;;;;;;;;;;5044453;28;20452;-75
2022/02/11 18:45:51;;;;;;;;;;;;;;;;;;5042735;28;19959;-75
2022/02/11 18:48:22;;;;;;;;;;;;;;;;;;5038079;28;19936;-76
2022/02/11 18:50:48;;;;;;;;;;;;;;;;;;5037642;28;20389;-75
2022/02/11 18:53:14;;;;;;;;;;;;;;;;;;5045108;28;19975;-76
2022/02/11 18:55:40;;;;;;;;;;;;;;;;;;5026277;28;19956;-75
2022/02/11 18:58:06;;;;;;;;;;;;;;;;;;5044503;28;20353;-75
2022/02/11 19:00:33;;;;;;;;;;;;;;;;;;5027790;28;19981;-75
2022/02/11 19:02:59;;;;;;;;;;;;;;;;;;5022507;28;19961;-75
2022/02/11 19:05:28;;;;;;;;;;;;;;;;;;5028256;28;19927;-75
2022/02/11 19:07:54;;;;;;;;;;;;;;;;;;5039607;28;19949;-75
2022/02/11 19:10:21;;;;;;;;;;;;;;;;;;5035751;28;19956;-75
2022/02/11 19:12:47;;;;;;;;;;;;;;;;;;5037482;28;20395;-76
2022/02/11 19:15:13;;;;;;;;;;;;;;;;;;5037266;28;19953;-75
2022/02/11 19:17:39;;;;;;;;;;;;;;;;;;5041881;28;19960;-74
2022/02/11 19:20:05;;;;;;;;;;;;;;;;;;5020821;28;19948;-75
2022/02/11 19:22:32;;;;;;;;;;;;;;;;;;5038012;28;19972;-75
2022/02/11 19:24:59;;;;;;;;;;;;;;;;;;5034907;28;19973;-74
2022/02/11 19:27:26;;;;;;;;;;;;;;;;;;5039585;28;19992;-74
2022/02/11 19:29:52;;;;;;;;;;;;;;;;;;5034368;28;19980;-74
2022/02/11 19:32:21;;;;;;;;;;;;;;;;;;5035680;28;19960;-76
2022/02/11 19:34:47;;;;;;;;;;;;;;;;;;5036764;28;19944;-75
2022/02/11 19:37:16;;;;;;;;;;;;;;;;;;5037570;28;20419;-76
2022/02/11 19:39:42;;;;;;;;;;;;;;;;;;5037889;28;19925;-76
2022/02/11 19:42:11;;;;;;;;;;;;;;;;;;5037068;28;20755;-76
2022/02/11 19:44:37;;;;;;;;;;;;;;;;;;5036132;28;19952;-76
2022/02/11 19:47:06;;;;;;;;;;;;;;;;;;5035870;28;19925;-75
2022/02/11 19:49:33;;;;;;;;;;;;;;;;;;5025328;28;19963;-76
2022/02/11 19:51:59;;;;;;;;;;;;;;;;;;5037421;28;19971;-76
2022/02/11 19:54:25;;;;;;;;;;;;;;;;;;5041019;28;19979;-76
2022/02/11 19:56:52;;;;;;;;;;;;;;;;;;5043070;28;20482;-75
2022/02/11 19:59:18;;;;;;;;;;;;;;;;;;5039537;28;20339;-77
2022/02/11 20:01:49;;;;;;;;;;;;;;;;;;5034151;28;19952;-75
2022/02/11 20:04:15;;;;;;;;;;;;;;;;;;5035181;28;19964;-76
2022/02/11 20:06:41;;;;;;;;;;;;;;;;;;5034886;28;19928;-75
2022/02/11 20:09:07;;;;;;;;;;;;;;;;;;5015310;28;19952;-77
2022/02/11 20:11:33;;;;;;;;;;;;;;;;;;5040789;28;19960;-76
2022/02/11 20:14:00;;;;;;;;;;;;;;;;;;5036273;28;20421;-77
2022/02/11 20:16:26;;;;;;;;;;;;;;;;;;5034423;28;19968;-76
2022/02/11 20:18:52;;;;;;;;;;;;;;;;;;5034098;28;19933;-77
2022/02/11 20:21:18;;;;;;;;;;;;;;;;;;5034451;28;20414;-77
2022/02/11 20:23:44;;;;;;;;;;;;;;;;;;5017875;28;19944;-76
2022/02/11 20:26:11;;;;;;;;;;;;;;;;;;5038267;28;20384;-76
2022/02/11 20:28:37;;;;;;;;;;;;;;;;;;5020268;28;19952;-76
2022/02/11 20:31:03;;;;;;;;;;;;;;;;;;5015790;28;19917;-76
2022/02/11 20:33:29;;;;;;;;;;;;;;;;;;5044407;28;20004;-76
2022/02/11 20:35:56;;;;;;;;;;;;;;;;;;5036194;28;20029;-76
2022/02/11 20:38:23;;;;;;;;;;;;;;;;;;5040514;28;19956;-76
2022/02/11 20:40:49;;;;;;;;;;;;;;;;;;5025675;28;19952;-76